Aérodrome :
LOGIN :

S'inscrire | Disclaimer

   EN    FR    IT 

 










Légende :    VFR   VFR Marginal   IFR   IFR Intensif   IFR Très Intensif
Visi : 
Plafond : 
>= 8 km
>= 3000ft
5 à 8 km
1000 à 3000 ft
1500m à 5 km
500 à 1000 ft
800 à 1500m
200 à 500 ft
< 800m
< 200 ft
Symboles :   Orages  Brouillard  Fortes neiges  Fortes précipitations  Vent > 20 kt
SIGMETs :   Divers  Orages  Givrage  Turbulence  Onde Orograph.  Cendres Volcan.







- Altitude de l'aérodrome : -15 ft
- Code IATA : RTM


EHRD - Rotterdam Zestienhoven

DERNIER METAR :
  • 251125Z AUTO 07015KT 040V100 9999 NCD 00/M11 Q1030 NOSIG

METARs EXPIRÉS :
  • 251055Z AUTO 08013KT 050V120 9999 NCD M00/M11 Q1031 NOSIG
  • 251025Z AUTO 09014KT 060V120 9999 NCD M01/M11 Q1031 NOSIG
  • 250955Z AUTO 09014KT 040V140 9999 NCD M01/M11 Q1031 NOSIG
  • 250925Z AUTO 09014KT 050V130 9999 NCD M02/M10 Q1031 NOSIG
  • 250855Z AUTO 08015KT 050V110 9999 NCD M02/M10 Q1031 NOSIG

TAF TAF EHRD
Valide du 25 à 12h jusqu'au 26 à 18h UTC


251115Z 2512/2618 08015KT CAVOK
BECMG 2518/2521 05010KT
Pas de NOTAMs connus pour ce terrain.



MET'MAP, la Météo Aéronautique d'un coup d'oeil ! - Copyright ORBIFLY Décembre 2007 - Disclaimer

ORBIFLY MET'MAP TEAM :

Programmation & Développement : Alexandra Zaïnal
Conception & Développement : Baudouin d'Aumeries
Co-Programmation & Développement : Marc-Olivier Méhu
Soutien technique & logistique : Manuel Goepfert

Contact : metmap@orbifly.com




SOURCES & CREDITS :

   NOAA